createdAt,value
2018-12-02T00:00:50.785Z,10.55
2018-12-02T00:01:50.755Z,10.53
2018-12-02T00:02:50.738Z,10.51
2018-12-02T00:03:50.708Z,10.41
2018-12-02T00:04:50.687Z,10.51
2018-12-02T00:05:50.709Z,10.41
2018-12-02T00:06:50.641Z,10.45
2018-12-02T00:07:50.619Z,10.45
2018-12-02T00:08:50.589Z,10.43
2018-12-02T00:09:50.575Z,10.43
2018-12-02T00:10:50.546Z,10.46
2018-12-02T00:11:50.524Z,10.43
2018-12-02T00:12:50.499Z,10.45
2018-12-02T00:13:50.479Z,10.41
2018-12-02T00:14:50.466Z,10.42
2018-12-02T00:15:50.449Z,10.43
2018-12-02T00:16:50.414Z,10.42
2018-12-02T00:17:50.389Z,10.57
2018-12-02T00:18:50.368Z,10.48
2018-12-02T00:19:50.348Z,10.57
2018-12-02T00:20:50.321Z,10.58
2018-12-02T00:21:50.313Z,10.57
2018-12-02T00:22:50.643Z,10.59
2018-12-02T00:23:50.253Z,10.58
2018-12-02T00:24:50.237Z,10.58
2018-12-02T00:25:50.209Z,10.59
2018-12-02T00:26:50.186Z,10.59
2018-12-02T00:27:50.166Z,10.61
2018-12-02T00:28:50.146Z,10.55
2018-12-02T00:29:50.129Z,10.53
2018-12-02T00:30:50.123Z,10.55
2018-12-02T00:31:50.074Z,10.57
2018-12-02T00:32:50.067Z,10.58
2018-12-02T00:33:50.045Z,10.64
2018-12-02T00:34:50.012Z,10.58
2018-12-02T00:35:49.994Z,10.57
2018-12-02T00:36:49.963Z,10.67
2018-12-02T00:37:49.941Z,10.65
2018-12-02T00:38:49.930Z,10.68
2018-12-02T00:39:49.905Z,10.55
2018-12-02T00:40:49.874Z,10.67
2018-12-02T00:41:49.853Z,10.69
2018-12-02T00:42:49.835Z,10.72
2018-12-02T00:43:49.818Z,10.69
2018-12-02T00:44:49.785Z,10.69
2018-12-02T00:45:49.763Z,10.67
2018-12-02T00:46:49.749Z,10.69
2018-12-02T00:47:49.731Z,10.69
2018-12-02T00:48:49.700Z,10.65
2018-12-02T00:49:49.676Z,10.71
2018-12-02T00:50:49.653Z,10.68
2018-12-02T00:51:49.630Z,10.71
2018-12-02T00:52:49.607Z,10.75
2018-12-02T00:53:49.585Z,10.69
2018-12-02T00:54:49.567Z,10.71
2018-12-02T00:55:49.539Z,10.72
2018-12-02T00:56:49.518Z,10.69
2018-12-02T00:57:49.494Z,10.72
2018-12-02T00:58:49.473Z,10.76
2018-12-02T00:59:49.449Z,10.72
2018-12-02T01:00:49.441Z,10.68
2018-12-02T01:01:49.411Z,10.82
2018-12-02T01:02:49.392Z,10.65
2018-12-02T01:03:49.414Z,10.77
2018-12-02T01:04:49.338Z,10.77
2018-12-02T01:05:49.316Z,10.77
2018-12-02T01:06:53.510Z,10.79
2018-12-02T01:07:49.289Z,10.79
2018-12-02T01:08:49.249Z,10.75
2018-12-02T01:09:49.228Z,10.76
2018-12-02T01:10:49.206Z,10.79
2018-12-02T01:11:49.182Z,10.80
2018-12-02T01:12:49.161Z,10.79
2018-12-02T01:13:49.138Z,10.83
2018-12-02T01:14:49.123Z,10.77
2018-12-02T01:15:49.093Z,10.82
2018-12-02T01:16:49.075Z,10.79
2018-12-02T01:17:49.057Z,10.77
2018-12-02T01:18:49.028Z,10.86
2018-12-02T01:19:49.013Z,10.86
2018-12-02T01:20:48.981Z,10.87
2018-12-02T01:21:48.976Z,10.87
2018-12-02T01:22:48.939Z,10.77
2018-12-02T01:23:48.924Z,10.83
2018-12-02T01:24:48.893Z,10.83
2018-12-02T01:25:48.872Z,10.84
2018-12-02T01:26:48.994Z,10.83
2018-12-02T01:27:48.826Z,10.86
2018-12-02T01:28:48.807Z,10.82
2018-12-02T01:29:48.786Z,10.86
2018-12-02T01:30:48.769Z,10.83
2018-12-02T01:31:48.738Z,10.84
2018-12-02T01:32:48.736Z,10.83
2018-12-02T01:33:48.693Z,10.82
2018-12-02T01:34:48.679Z,10.92
2018-12-02T01:35:48.654Z,10.82
2018-12-02T01:36:48.636Z,10.84
2018-12-02T01:37:48.605Z,10.87
2018-12-02T01:38:48.599Z,10.83
2018-12-02T01:39:48.560Z,10.83
2018-12-02T01:40:48.539Z,10.83
2018-12-02T01:41:48.525Z,10.86
2018-12-02T01:42:48.500Z,10.87
2018-12-02T01:43:48.472Z,10.87
2018-12-02T01:44:48.451Z,10.89
2018-12-02T01:45:48.428Z,10.87
2018-12-02T01:46:48.407Z,10.90
2018-12-02T01:47:48.390Z,10.86
2018-12-02T01:48:48.364Z,10.87
2018-12-02T01:49:48.348Z,10.89
2018-12-02T01:50:48.327Z,10.92
2018-12-02T01:51:48.294Z,10.90
2018-12-02T01:52:48.281Z,10.90
2018-12-02T01:53:48.250Z,10.97
2018-12-02T01:54:48.229Z,10.97
2018-12-02T01:55:48.208Z,10.90
2018-12-02T01:56:48.188Z,10.87
2018-12-02T01:57:48.162Z,10.90
2018-12-02T01:58:48.143Z,10.89
2018-12-02T01:59:48.120Z,10.89
2018-12-02T02:00:48.095Z,10.92
2018-12-02T02:01:48.074Z,10.92
2018-12-02T02:02:48.055Z,10.87
2018-12-02T02:03:48.030Z,10.87
2018-12-02T02:04:48.008Z,10.89
2018-12-02T02:05:48.004Z,10.87
2018-12-02T02:06:47.965Z,10.92
2018-12-02T02:07:47.947Z,10.89
2018-12-02T02:08:47.921Z,10.86
2018-12-02T02:09:47.903Z,10.90
2018-12-02T02:10:47.877Z,10.92
2018-12-02T02:11:47.856Z,10.97
2018-12-02T02:12:47.832Z,10.84
2018-12-02T02:13:47.812Z,10.92
2018-12-02T02:14:47.792Z,10.97
2018-12-02T02:15:47.767Z,10.86
2018-12-02T02:16:47.745Z,10.98
2018-12-02T02:17:47.722Z,10.94
2018-12-02T02:18:47.703Z,10.87
2018-12-02T02:19:47.683Z,10.97
2018-12-02T02:20:47.658Z,10.87
2018-12-02T02:21:47.641Z,10.98
2018-12-02T02:22:47.614Z,11.00
2018-12-02T02:23:47.591Z,10.90
2018-12-02T02:24:47.569Z,11.05
2018-12-02T02:25:47.555Z,11.02
2018-12-02T02:26:47.535Z,10.98
2018-12-02T02:27:47.512Z,11.01
2018-12-02T02:28:47.482Z,11.05
2018-12-02T02:29:47.462Z,11.00
2018-12-02T02:30:47.437Z,11.07
2018-12-02T02:31:47.469Z,11.04
2018-12-02T02:32:47.395Z,11.00
2018-12-02T02:33:47.382Z,10.97
2018-12-02T02:34:47.356Z,11.00
2018-12-02T02:35:47.329Z,11.02
2018-12-02T02:36:47.312Z,11.00
2018-12-02T02:37:47.283Z,10.97
2018-12-02T02:38:47.263Z,10.97
2018-12-02T02:39:47.240Z,10.89
2018-12-02T02:40:47.220Z,11.04
2018-12-02T02:41:47.196Z,10.95
2018-12-02T02:42:47.177Z,11.00
2018-12-02T02:43:47.153Z,11.02
2018-12-02T02:44:47.130Z,11.02
2018-12-02T02:45:47.111Z,11.00
2018-12-02T02:46:47.087Z,11.05
2018-12-02T02:47:47.066Z,11.01
2018-12-02T02:48:47.051Z,11.02
2018-12-02T02:49:47.022Z,11.08
2018-12-02T02:50:47.001Z,11.05
2018-12-02T02:51:46.987Z,10.98
2018-12-02T02:52:46.957Z,11.07
2018-12-02T02:53:46.936Z,10.98
2018-12-02T02:54:46.918Z,10.98
2018-12-02T02:55:46.893Z,11.04
2018-12-02T02:56:46.868Z,11.01
2018-12-02T02:57:46.847Z,11.02
2018-12-02T02:58:46.825Z,11.00
2018-12-02T02:59:46.801Z,10.98
2018-12-02T03:00:46.782Z,11.02
2018-12-02T03:01:46.758Z,10.97
2018-12-02T03:02:46.738Z,11.02
2018-12-02T03:03:46.714Z,11.15
2018-12-02T03:04:46.708Z,11.04
2018-12-02T03:05:46.674Z,11.08
2018-12-02T03:06:46.649Z,10.97
2018-12-02T03:07:46.653Z,11.04
2018-12-02T03:08:46.605Z,10.98
2018-12-02T03:09:46.592Z,10.98
2018-12-02T03:10:46.564Z,11.02
2018-12-02T03:11:46.545Z,11.02
2018-12-02T03:12:46.521Z,11.07
2018-12-02T03:13:46.498Z,11.04
2018-12-02T03:14:46.481Z,11.12
2018-12-02T03:15:46.452Z,11.04
2018-12-02T03:16:46.439Z,11.12
2018-12-02T03:17:46.409Z,11.12
2018-12-02T03:18:46.390Z,11.02
2018-12-02T03:19:46.369Z,11.05
2018-12-02T03:20:46.345Z,11.04
2018-12-02T03:21:46.322Z,11.08
2018-12-02T03:22:46.301Z,11.13
2018-12-02T03:23:46.277Z,11.07
2018-12-02T03:24:46.258Z,11.08
2018-12-02T03:25:46.235Z,11.08
2018-12-02T03:26:46.213Z,11.10
2018-12-02T03:27:46.191Z,11.02
2018-12-02T03:28:46.168Z,11.12
2018-12-02T03:29:46.146Z,11.10
2018-12-02T03:30:46.126Z,11.13
2018-12-02T03:31:46.105Z,11.02
2018-12-02T03:32:46.087Z,11.02
2018-12-02T03:33:46.065Z,11.15
2018-12-02T03:34:46.045Z,11.05
2018-12-02T03:35:46.015Z,11.08
2018-12-02T03:36:45.994Z,11.02
2018-12-02T03:37:46.054Z,11.07
2018-12-02T03:38:45.950Z,11.05
2018-12-02T03:39:45.926Z,11.05
2018-12-02T03:40:45.905Z,11.05
2018-12-02T03:41:45.887Z,11.12
2018-12-02T03:42:45.864Z,11.15
2018-12-02T03:43:45.850Z,11.16
2018-12-02T03:44:45.817Z,11.15
2018-12-02T03:45:45.803Z,11.12
2018-12-02T03:46:45.777Z,11.05
2018-12-02T03:47:45.754Z,11.05
2018-12-02T03:48:45.731Z,11.02
2018-12-02T03:49:45.710Z,11.05
2018-12-02T03:50:45.689Z,11.08
2018-12-02T03:51:45.668Z,11.08
2018-12-02T03:52:45.646Z,11.01
2018-12-02T03:53:45.624Z,11.02
2018-12-02T03:54:45.601Z,10.94
2018-12-02T03:55:45.587Z,10.89
2018-12-02T03:56:45.559Z,10.86
2018-12-02T03:57:45.540Z,10.83
2018-12-02T03:58:45.515Z,10.80
2018-12-02T03:59:45.493Z,10.80
2018-12-02T04:00:45.477Z,10.71
2018-12-02T04:01:45.447Z,10.72
2018-12-02T04:02:45.427Z,10.59
2018-12-02T04:03:45.426Z,10.61
2018-12-02T04:04:45.384Z,10.61
2018-12-02T04:05:45.370Z,10.61
2018-12-02T04:06:45.339Z,10.55
2018-12-02T04:07:45.317Z,10.51
2018-12-02T04:08:45.303Z,10.62
2018-12-02T04:09:45.275Z,10.57
2018-12-02T04:10:45.252Z,10.48
2018-12-02T04:11:45.230Z,10.48
2018-12-02T04:12:45.210Z,10.45
2018-12-02T04:13:45.186Z,10.46
2018-12-02T04:14:45.163Z,10.45
2018-12-02T04:15:45.152Z,10.48
2018-12-02T04:16:45.121Z,10.51
2018-12-02T04:17:45.109Z,10.38
2018-12-02T04:18:45.078Z,10.31
2018-12-02T04:19:45.051Z,10.34
2018-12-02T04:20:45.032Z,10.27
2018-12-02T04:21:45.018Z,10.42
2018-12-02T04:22:44.989Z,10.34
2018-12-02T04:23:44.965Z,10.38
2018-12-02T04:24:44.943Z,10.34
2018-12-02T04:25:44.922Z,10.34
2018-12-02T04:26:44.899Z,10.39
2018-12-02T04:27:44.881Z,10.41
2018-12-02T04:28:44.855Z,10.39
2018-12-02T04:29:44.837Z,10.39
2018-12-02T04:30:44.813Z,10.31
2018-12-02T04:31:44.789Z,10.36
2018-12-02T04:32:44.771Z,10.36
2018-12-02T04:33:44.745Z,10.34
2018-12-02T04:34:44.722Z,10.33
2018-12-02T04:35:44.700Z,10.39
2018-12-02T04:36:44.677Z,10.38
2018-12-02T04:37:44.656Z,10.33
2018-12-02T04:38:44.635Z,10.31
2018-12-02T04:39:44.610Z,10.20
2018-12-02T04:40:44.589Z,10.25
2018-12-02T04:41:44.566Z,10.21
2018-12-02T04:42:44.549Z,10.24
2018-12-02T04:43:44.522Z,10.25
2018-12-02T04:44:44.531Z,10.23
2018-12-02T04:45:44.478Z,10.24
2018-12-02T04:46:44.456Z,10.25
2018-12-02T04:47:44.437Z,10.15
2018-12-02T04:48:44.411Z,10.15
2018-12-02T04:49:44.388Z,10.23
2018-12-02T04:50:44.368Z,10.15
2018-12-02T04:51:44.395Z,10.18
2018-12-02T04:52:44.329Z,10.10
2018-12-02T04:53:44.299Z,10.15
2018-12-02T04:54:44.284Z,10.21
2018-12-02T04:55:44.262Z,10.17
2018-12-02T04:56:44.237Z,10.09
2018-12-02T04:57:44.211Z,10.18
2018-12-02T04:58:44.190Z,10.17
2018-12-02T04:59:44.166Z,10.13
2018-12-02T05:00:44.146Z,10.12
2018-12-02T05:01:44.122Z,10.12
2018-12-02T05:02:44.099Z,10.24
2018-12-02T05:03:44.077Z,10.24
2018-12-02T05:04:44.055Z,10.17
2018-12-02T05:05:44.033Z,10.18
2018-12-02T05:06:44.012Z,10.17
2018-12-02T05:07:43.989Z,10.24
2018-12-02T05:08:43.966Z,10.15
2018-12-02T05:09:43.943Z,10.18
2018-12-02T05:10:43.921Z,10.17
2018-12-02T05:11:43.899Z,10.18
2018-12-02T05:12:43.880Z,10.18
2018-12-02T05:13:43.855Z,10.25
2018-12-02T05:14:43.831Z,10.30
2018-12-02T05:15:43.808Z,10.21
2018-12-02T05:16:43.786Z,10.21
2018-12-02T05:17:43.772Z,10.23
2018-12-02T05:18:43.742Z,10.23
2018-12-02T05:19:43.719Z,10.21
2018-12-02T05:20:43.697Z,10.15
2018-12-02T05:21:43.674Z,10.17
2018-12-02T05:22:43.653Z,10.18
2018-12-02T05:23:43.630Z,10.25
2018-12-02T05:24:43.609Z,10.24
2018-12-02T05:25:43.587Z,10.25
2018-12-02T05:26:43.563Z,10.20
2018-12-02T05:27:43.540Z,10.23
2018-12-02T05:28:43.517Z,10.17
2018-12-02T05:29:43.495Z,10.13
2018-12-02T05:30:43.473Z,10.23
2018-12-02T05:31:43.450Z,10.18
2018-12-02T05:32:43.429Z,10.13
2018-12-02T05:33:43.414Z,10.18
2018-12-02T05:34:43.383Z,10.15
2018-12-02T05:35:43.369Z,10.21
2018-12-02T05:36:43.339Z,10.30
2018-12-02T05:37:43.315Z,10.18
2018-12-02T05:38:43.304Z,10.25
2018-12-02T05:39:43.270Z,10.20
2018-12-02T05:40:43.255Z,10.20
2018-12-02T05:41:43.226Z,10.21
2018-12-02T05:42:43.208Z,10.24
2018-12-02T05:43:43.182Z,10.20
2018-12-02T05:44:43.167Z,10.18
2018-12-02T05:45:43.137Z,10.13
2018-12-02T05:46:43.118Z,10.17
2018-12-02T05:47:43.104Z,10.12
2018-12-02T05:48:43.070Z,10.18
2018-12-02T05:49:43.197Z,10.13
2018-12-02T05:50:43.026Z,10.18
2018-12-02T05:51:43.002Z,10.18
2018-12-02T05:52:42.980Z,10.24
2018-12-02T05:53:42.957Z,10.23
2018-12-02T05:54:42.938Z,10.21
2018-12-02T05:55:42.913Z,10.17
2018-12-02T05:56:42.890Z,10.18
2018-12-02T05:57:42.868Z,10.13
2018-12-02T05:58:42.846Z,10.23
2018-12-02T05:59:42.824Z,10.13
2018-12-02T06:00:42.802Z,10.18
2018-12-02T06:01:42.787Z,10.18
2018-12-02T06:02:42.759Z,10.15
2018-12-02T06:03:42.735Z,10.17
2018-12-02T06:04:42.713Z,10.24
2018-12-02T06:05:42.695Z,10.20
2018-12-02T06:06:42.674Z,10.20
2018-12-02T06:07:42.646Z,10.20
2018-12-02T06:08:42.623Z,10.20
2018-12-02T06:09:42.601Z,10.25
2018-12-02T06:10:42.587Z,10.18
2018-12-02T06:11:43.897Z,10.21
2018-12-02T06:12:42.538Z,10.17
2018-12-02T06:13:42.511Z,10.21
2018-12-02T06:14:42.487Z,10.20
2018-12-02T06:15:42.465Z,10.25
2018-12-02T06:16:42.444Z,10.24
2018-12-02T06:17:42.421Z,10.23
2018-12-02T06:18:42.400Z,10.17
2018-12-02T06:19:42.379Z,10.21
2018-12-02T06:20:42.361Z,10.30
2018-12-02T06:21:42.332Z,10.27
2018-12-02T06:22:42.310Z,10.28
2018-12-02T06:23:42.286Z,10.31
2018-12-02T06:24:42.264Z,10.34
2018-12-02T06:25:46.486Z,10.23
2018-12-02T06:26:42.220Z,10.21
2018-12-02T06:27:42.204Z,10.24
2018-12-02T06:28:42.175Z,10.24
2018-12-02T06:29:42.154Z,10.27
2018-12-02T06:30:42.134Z,10.24
2018-12-02T06:31:42.107Z,10.21
2018-12-02T06:32:42.085Z,10.24
2018-12-02T06:33:42.069Z,10.20
2018-12-02T06:34:42.088Z,10.24
2018-12-02T06:35:42.020Z,10.28
2018-12-02T06:36:42.006Z,10.27
2018-12-02T06:37:41.977Z,10.21
2018-12-02T06:38:41.951Z,10.24
2018-12-02T06:39:41.931Z,10.25
2018-12-02T06:40:41.910Z,10.33
2018-12-02T06:41:41.886Z,10.24
2018-12-02T06:42:41.870Z,10.23
2018-12-02T06:43:41.841Z,10.27
2018-12-02T06:44:41.818Z,10.21
2018-12-02T06:45:41.796Z,10.27
2018-12-02T06:46:41.773Z,10.38
2018-12-02T06:47:41.761Z,10.25
2018-12-02T06:48:41.775Z,10.23
2018-12-02T06:49:41.706Z,10.25
2018-12-02T06:50:41.685Z,10.24
2018-12-02T06:51:41.665Z,10.36
2018-12-02T06:52:41.639Z,10.25
2018-12-02T06:53:41.618Z,10.31
2018-12-02T06:54:41.602Z,10.30
2018-12-02T06:55:41.575Z,10.28
2018-12-02T06:56:41.590Z,10.38
2018-12-02T06:57:41.529Z,10.30
2018-12-02T06:58:41.508Z,10.34
2018-12-02T06:59:41.493Z,10.30
2018-12-02T07:00:41.462Z,10.31
2018-12-02T07:01:41.440Z,10.36
2018-12-02T07:02:41.427Z,10.34
2018-12-02T07:03:41.402Z,10.30
2018-12-02T07:04:41.372Z,10.33
2018-12-02T07:05:41.352Z,10.41
2018-12-02T07:06:41.329Z,10.43
2018-12-02T07:07:41.307Z,10.41
2018-12-02T07:08:41.284Z,10.34
2018-12-02T07:09:41.259Z,10.34
2018-12-02T07:10:41.248Z,10.42
2018-12-02T07:11:41.217Z,10.39
2018-12-02T07:12:41.195Z,10.42
2018-12-02T07:13:41.176Z,10.39
2018-12-02T07:14:41.154Z,10.38
2018-12-02T07:15:41.128Z,10.39
2018-12-02T07:16:41.108Z,10.39
2018-12-02T07:17:41.243Z,10.38
2018-12-02T07:18:41.062Z,10.39
2018-12-02T07:19:41.040Z,10.31
2018-12-02T07:20:41.016Z,10.38
2018-12-02T07:21:40.999Z,10.34
2018-12-02T07:22:40.973Z,10.39
2018-12-02T07:23:40.949Z,10.39
2018-12-02T07:24:40.930Z,10.45
2018-12-02T07:25:40.907Z,10.33
2018-12-02T07:26:40.886Z,10.31
2018-12-02T07:27:40.862Z,10.39
2018-12-02T07:28:40.841Z,10.41
2018-12-02T07:29:40.817Z,10.38
2018-12-02T07:30:40.794Z,10.34
2018-12-02T07:31:40.778Z,10.33
2018-12-02T07:32:40.751Z,10.34
2018-12-02T07:33:40.736Z,10.34
2018-12-02T07:34:40.708Z,10.38
2018-12-02T07:35:40.684Z,10.28
2018-12-02T07:36:40.671Z,10.39
2018-12-02T07:37:40.639Z,10.38
2018-12-02T07:38:40.626Z,10.39
2018-12-02T07:39:40.595Z,10.45
2018-12-02T07:40:40.572Z,10.31
2018-12-02T07:41:40.550Z,10.28
2018-12-02T07:42:40.539Z,10.38
2018-12-02T07:43:40.510Z,10.33
2018-12-02T07:44:40.483Z,10.31
2018-12-02T07:45:40.473Z,10.34
2018-12-02T07:46:40.449Z,10.41
2018-12-02T07:47:40.419Z,10.43
2018-12-02T07:48:40.397Z,10.45
2018-12-02T07:49:40.377Z,10.45
2018-12-02T07:50:40.355Z,10.43
2018-12-02T07:51:40.328Z,10.46
2018-12-02T07:52:40.312Z,10.45
2018-12-02T07:53:40.290Z,10.42
2018-12-02T07:54:40.262Z,10.41
2018-12-02T07:55:40.251Z,10.43
2018-12-02T07:56:40.217Z,10.42
2018-12-02T07:57:40.197Z,10.39
2018-12-02T07:58:40.185Z,10.48
2018-12-02T07:59:40.151Z,10.45
2018-12-02T08:00:40.128Z,10.57
2018-12-02T08:01:40.114Z,10.39
2018-12-02T08:02:40.085Z,10.39
2018-12-02T08:03:40.061Z,10.43
2018-12-02T08:04:40.041Z,10.43
2018-12-02T08:05:40.018Z,10.41
2018-12-02T08:06:40.004Z,10.48
2018-12-02T08:07:39.972Z,10.43
2018-12-02T08:08:39.951Z,10.49
2018-12-02T08:09:39.928Z,10.46
2018-12-02T08:10:39.905Z,10.42
2018-12-02T08:11:39.891Z,10.42
2018-12-02T08:12:39.861Z,10.49
2018-12-02T08:13:39.838Z,10.45
2018-12-02T08:14:39.816Z,10.51
2018-12-02T08:15:39.793Z,10.53
2018-12-02T08:16:39.772Z,10.55
2018-12-02T08:17:39.749Z,10.55
2018-12-02T08:18:39.728Z,10.49
2018-12-02T08:19:39.705Z,10.62
2018-12-02T08:20:39.683Z,10.58
2018-12-02T08:21:39.670Z,10.55
2018-12-02T08:22:39.648Z,10.49
2018-12-02T08:23:39.615Z,10.62
2018-12-02T08:24:39.592Z,10.55
2018-12-02T08:25:39.571Z,10.58
2018-12-02T08:26:39.552Z,10.48
2018-12-02T08:27:39.525Z,10.53
2018-12-02T08:28:39.510Z,10.53
2018-12-02T08:29:39.483Z,10.58
2018-12-02T08:30:39.461Z,10.61
2018-12-02T08:31:39.436Z,10.58
2018-12-02T08:32:39.414Z,10.64
2018-12-02T08:33:39.392Z,10.57
2018-12-02T08:34:39.382Z,10.59
2018-12-02T08:35:39.347Z,10.61
2018-12-02T08:36:39.333Z,10.59
2018-12-02T08:37:39.305Z,10.59
2018-12-02T08:38:39.291Z,10.57
2018-12-02T08:39:40.038Z,10.64
2018-12-02T08:40:39.237Z,10.69
2018-12-02T08:41:39.224Z,10.76
2018-12-02T08:42:39.191Z,10.71
2018-12-02T08:43:39.175Z,10.76
2018-12-02T08:44:39.148Z,10.68
2018-12-02T08:45:39.126Z,10.71
2018-12-02T08:46:39.104Z,10.69
2018-12-02T08:47:39.088Z,10.68
2018-12-02T08:48:39.058Z,10.77
2018-12-02T08:49:39.044Z,10.76
2018-12-02T08:50:39.015Z,10.75
2018-12-02T08:51:39.012Z,10.71
2018-12-02T08:52:38.978Z,10.76
2018-12-02T08:53:38.954Z,10.71
2018-12-02T08:54:38.923Z,10.72
2018-12-02T08:55:38.908Z,10.64
2018-12-02T08:56:38.889Z,10.68
2018-12-02T08:57:38.858Z,10.76
2018-12-02T08:58:38.837Z,10.76
2018-12-02T08:59:38.813Z,10.75
2018-12-02T09:00:38.809Z,10.75
2018-12-02T09:01:38.769Z,10.77
2018-12-02T09:02:38.760Z,10.77
2018-12-02T09:03:38.727Z,10.75
2018-12-02T09:04:38.704Z,10.75
2018-12-02T09:05:38.683Z,10.79
2018-12-02T09:06:38.661Z,10.82
2018-12-02T09:07:38.637Z,10.79
2018-12-02T09:08:38.615Z,10.82
2018-12-02T09:09:38.593Z,10.79
2018-12-02T09:10:38.571Z,10.90
2018-12-02T09:11:38.548Z,10.82
2018-12-02T09:12:38.535Z,10.87
2018-12-02T09:13:38.507Z,10.83
2018-12-02T09:14:38.490Z,10.80
2018-12-02T09:15:38.460Z,10.84
2018-12-02T09:16:38.439Z,10.86
2018-12-02T09:17:38.422Z,10.84
2018-12-02T09:18:38.415Z,10.84
2018-12-02T09:19:38.373Z,10.86
2018-12-02T09:20:38.357Z,10.87
2018-12-02T09:21:38.328Z,10.84
2018-12-02T09:22:38.305Z,10.90
2018-12-02T09:23:38.284Z,11.02
2018-12-02T09:24:38.269Z,10.92
2018-12-02T09:25:38.249Z,10.90
2018-12-02T09:26:38.227Z,10.86
2018-12-02T09:27:38.203Z,10.97
2018-12-02T09:28:38.177Z,10.83
2018-12-02T09:29:38.164Z,10.89
2018-12-02T09:30:38.135Z,10.87
2018-12-02T09:31:38.118Z,10.97
2018-12-02T09:32:38.199Z,11.04
2018-12-02T09:33:38.065Z,11.02
2018-12-02T09:34:38.053Z,11.01
2018-12-02T09:35:38.024Z,11.01
2018-12-02T09:36:38.007Z,11.00
2018-12-02T09:37:37.985Z,11.04
2018-12-02T09:38:37.955Z,11.02
2018-12-02T09:39:37.935Z,11.02
2018-12-02T09:40:37.912Z,11.10
2018-12-02T09:41:37.888Z,11.07
2018-12-02T09:42:37.869Z,11.05
2018-12-02T09:43:37.846Z,11.12
2018-12-02T09:44:37.824Z,11.05
2018-12-02T09:45:37.807Z,11.13
2018-12-02T09:46:37.788Z,11.15
2018-12-02T09:47:37.757Z,11.12
2018-12-02T09:48:37.734Z,11.08
2018-12-02T09:49:37.711Z,11.10
2018-12-02T09:50:37.697Z,11.12
2018-12-02T09:51:37.677Z,11.22
2018-12-02T09:52:37.649Z,11.19
2018-12-02T09:53:37.626Z,11.22
2018-12-02T09:54:37.606Z,11.22
2018-12-02T09:55:37.591Z,11.20
2018-12-02T09:56:37.566Z,11.23
2018-12-02T09:57:37.544Z,11.20
2018-12-02T09:58:37.524Z,11.20
2018-12-02T09:59:37.499Z,11.22
2018-12-02T10:00:37.482Z,11.18
2018-12-02T10:01:37.451Z,11.23
2018-12-02T10:02:37.438Z,11.30
2018-12-02T10:03:37.410Z,11.23
2018-12-02T10:04:37.390Z,11.23
2018-12-02T10:05:37.371Z,11.33
2018-12-02T10:06:37.346Z,11.33
2018-12-02T10:07:37.322Z,11.26
2018-12-02T10:08:37.299Z,11.31
2018-12-02T10:09:37.283Z,11.38
2018-12-02T10:10:37.256Z,11.37
2018-12-02T10:11:37.246Z,11.38
2018-12-02T10:12:37.219Z,11.45
2018-12-02T10:13:37.191Z,11.40
2018-12-02T10:14:37.184Z,11.43
2018-12-02T10:15:37.196Z,11.43
2018-12-02T10:16:37.128Z,11.37
2018-12-02T10:17:37.110Z,11.43
2018-12-02T10:18:37.096Z,11.53
2018-12-02T10:19:37.064Z,11.48
2018-12-02T10:20:37.051Z,11.49
2018-12-02T10:21:37.065Z,11.51
2018-12-02T10:22:37.001Z,11.45
2018-12-02T10:23:36.981Z,11.58
2018-12-02T10:24:36.955Z,11.59
2018-12-02T10:25:37.034Z,11.58
2018-12-02T10:26:36.912Z,11.59
2018-12-02T10:27:36.900Z,11.62
2018-12-02T10:28:36.875Z,11.65
2018-12-02T10:29:36.856Z,11.67
2018-12-02T10:30:36.829Z,11.63
2018-12-02T10:31:36.814Z,11.70
2018-12-02T10:32:36.797Z,11.77
2018-12-02T10:33:36.764Z,11.74
2018-12-02T10:34:36.745Z,11.70
2018-12-02T10:35:36.725Z,11.73
2018-12-02T10:36:36.698Z,11.80
2018-12-02T10:37:36.684Z,11.76
2018-12-02T10:38:36.664Z,11.77
2018-12-02T10:39:36.634Z,11.78
2018-12-02T10:40:36.613Z,11.73
2018-12-02T10:41:36.594Z,11.73
2018-12-02T10:42:36.574Z,11.76
2018-12-02T10:43:36.547Z,11.78
2018-12-02T10:44:36.531Z,11.86
2018-12-02T10:45:36.523Z,11.86
2018-12-02T10:46:36.495Z,11.88
2018-12-02T10:47:36.474Z,11.81
2018-12-02T10:48:36.437Z,11.86
2018-12-02T10:49:36.422Z,11.88
2018-12-02T10:50:36.401Z,11.89
2018-12-02T10:51:36.389Z,11.93
2018-12-02T10:52:36.363Z,11.89
2018-12-02T10:53:36.346Z,11.86
2018-12-02T10:54:36.317Z,11.95
2018-12-02T10:55:36.296Z,11.93
2018-12-02T10:56:36.275Z,11.97
2018-12-02T10:57:36.255Z,11.93
2018-12-02T10:58:36.234Z,11.99
2018-12-02T10:59:36.212Z,12.02
2018-12-02T11:00:36.195Z,12.02
2018-12-02T11:01:36.168Z,11.97
2018-12-02T11:02:36.156Z,12.00
2018-12-02T11:03:36.134Z,12.00
2018-12-02T11:04:36.113Z,12.05
2018-12-02T11:05:36.093Z,12.08
2018-12-02T11:06:36.402Z,12.03
2018-12-02T11:07:36.049Z,12.03
2018-12-02T11:08:36.022Z,12.03
2018-12-02T11:09:36.001Z,12.08
2018-12-02T11:10:36.004Z,12.12
2018-12-02T11:11:36.112Z,12.15
2018-12-02T11:12:35.950Z,12.12
2018-12-02T11:13:35.919Z,12.23
2018-12-02T11:14:35.897Z,12.23
2018-12-02T11:15:35.903Z,12.21
2018-12-02T11:16:35.854Z,12.21
2018-12-02T11:17:35.842Z,12.20
2018-12-02T11:18:35.817Z,12.20
2018-12-02T11:19:35.795Z,12.21
2018-12-02T11:20:35.769Z,12.23
2018-12-02T11:21:35.769Z,12.23
2018-12-02T11:22:35.734Z,12.20
2018-12-02T11:23:35.720Z,12.23
2018-12-02T11:24:35.692Z,12.23
2018-12-02T11:25:35.675Z,12.20
2018-12-02T11:26:35.670Z,12.36
2018-12-02T11:27:35.634Z,12.36
2018-12-02T11:28:35.611Z,12.32
2018-12-02T11:29:35.598Z,12.28
2018-12-02T11:30:35.570Z,12.30
2018-12-02T11:31:35.574Z,12.33
2018-12-02T11:32:35.526Z,12.35
2018-12-02T11:33:35.504Z,12.32
2018-12-02T11:34:35.486Z,12.40
2018-12-02T11:35:35.468Z,12.44
2018-12-02T11:36:35.442Z,12.35
2018-12-02T11:37:35.422Z,12.50
2018-12-02T11:38:35.457Z,12.48
2018-12-02T11:39:35.391Z,12.48
2018-12-02T11:40:35.357Z,12.47
2018-12-02T11:41:35.347Z,12.37
2018-12-02T11:42:35.324Z,12.48
2018-12-02T11:44:35.282Z,12.51
2018-12-02T11:45:35.262Z,12.55
2018-12-02T11:46:35.232Z,12.54
2018-12-02T11:47:35.217Z,12.48
2018-12-02T11:48:35.191Z,12.53
2018-12-02T11:49:35.184Z,12.55
2018-12-02T11:50:35.167Z,12.57
2018-12-02T11:51:35.135Z,12.55
2018-12-02T11:52:35.110Z,12.55
2018-12-02T11:53:35.097Z,12.54
2018-12-02T11:54:35.108Z,12.61
2018-12-02T11:55:35.050Z,12.62
2018-12-02T11:56:35.035Z,12.61
2018-12-02T11:57:35.011Z,12.61
2018-12-02T11:58:35.022Z,12.55
2018-12-02T11:59:34.979Z,12.58
2018-12-02T12:00:34.960Z,12.63
2018-12-02T12:01:34.932Z,12.63
2018-12-02T12:02:34.907Z,12.61
2018-12-02T12:03:34.891Z,12.61
2018-12-02T12:04:34.875Z,12.63
2018-12-02T12:05:34.842Z,12.65
2018-12-02T12:06:34.829Z,12.63
2018-12-02T12:07:34.803Z,12.57
2018-12-02T12:08:34.785Z,12.61
2018-12-02T12:09:34.883Z,12.62
2018-12-02T12:10:34.753Z,12.63
2018-12-02T12:11:34.723Z,12.58
2018-12-02T12:12:34.697Z,12.78
2018-12-02T12:13:34.678Z,12.68
2018-12-02T12:14:34.656Z,12.76
2018-12-02T12:15:34.643Z,12.83
2018-12-02T12:16:34.616Z,12.80
2018-12-02T12:17:34.597Z,12.76
2018-12-02T12:18:34.589Z,12.84
2018-12-02T12:19:34.562Z,12.80
2018-12-02T12:20:34.542Z,12.80
2018-12-02T12:21:34.524Z,12.83
2018-12-02T12:22:34.493Z,12.86
2018-12-02T12:23:34.478Z,12.88
2018-12-02T12:24:34.472Z,12.86
2018-12-02T12:25:34.438Z,12.86
2018-12-02T12:26:34.420Z,12.87
2018-12-02T12:27:34.395Z,12.90
2018-12-02T12:28:34.376Z,12.87
2018-12-02T12:29:34.351Z,12.84
2018-12-02T12:30:34.330Z,12.95
2018-12-02T12:31:34.411Z,12.93
2018-12-02T12:32:34.310Z,12.88
2018-12-02T12:33:34.268Z,12.90
2018-12-02T12:34:34.255Z,12.94
2018-12-02T12:35:34.242Z,12.98
2018-12-02T12:36:34.206Z,13.03
2018-12-02T12:37:34.194Z,13.05
2018-12-02T12:38:34.174Z,13.01
2018-12-02T12:39:34.306Z,13.06
2018-12-02T12:40:34.134Z,12.98
2018-12-02T12:41:34.106Z,13.06
2018-12-02T12:42:34.102Z,13.17
2018-12-02T12:43:34.065Z,13.09
2018-12-02T12:44:34.065Z,13.11
2018-12-02T12:45:34.031Z,13.08
2018-12-02T12:46:34.046Z,13.17
2018-12-02T12:47:33.982Z,13.21
2018-12-02T12:48:33.962Z,13.13
2018-12-02T12:49:33.951Z,13.26
2018-12-02T12:50:33.924Z,13.30
2018-12-02T12:51:39.736Z,13.21
2018-12-02T12:52:33.887Z,13.37
2018-12-02T12:53:33.861Z,13.36